Pagrindinis puslapis
METAR-TAF:

METAR-TAF

Oro uostai :

Odensė, Danija

platuma: 55-29N, ilguma: 010-20E, Aukštis: 17 m

Dabartinis oras

Ataskaita buvo paskelbta 10 valandos ir 54 minutes, ne 15:50 UTC
Vėjas 12 kt iš Pietų
Temperatūra 18°C
Drėgmė 34%
Slėgis 1020 hPa
Matomumas 10 km arba daugiau
nėra debesų žemiau 1500 m ir nėra kamuolinių lietaus debesų

METAR: EKOD 061550Z 18012KT CAVOK 18/02 Q1020

Laikas: 04:44 (02:44 UTC)

Prognozė

Ataskaita buvo paskelbta 14 valandos ir 53 minutes, ne 11:51 UTC
Prognozė galioja nuo 06 metu 12 UTC su 06 metu 17 UTC
Vėjas 12 kt iš Pietų
Matomumas 10 km arba daugiau
nėra debesų žemiau 1500 m ir nėra kamuolinių lietaus debesų

TAF: EKOD 061151Z 0612/0617 17012KT CAVOK

Orai ataskaitas ir orų prognozės (METAR, TAF).

turimą stotys yra geltonos ir raudonos taškus žemėlapyje.

Perkelti pele per norėdami pamatyti stoties vardą.

Tada spustelėkite, norėdami matyti oro stebėjimo ir prognozės.

Norėdami pakeisti žemėlapį: spustelėkite ant žalios mygtukų su juodo kryžiaus žemyn,; žalią mygtuką su brūkšneliu, jei norite nutolinti; arba žalių rodyklių gretimoms žemėlapius.


METAR-TAF: